sensor_id;sensor_type;location;lat;lon;timestamp;P1;durP1;ratioP1;P2;durP2;ratioP2
44572;SDS011;31762;45.420;10.072;2023-08-24T00:04:38;9.38;;;8.57;;
44572;SDS011;31762;45.420;10.072;2023-08-24T00:09:40;9.73;;;8.82;;
44572;SDS011;31762;45.420;10.072;2023-08-24T00:14:42;10.43;;;9.02;;
44572;SDS011;31762;45.420;10.072;2023-08-24T00:19:45;9.82;;;8.90;;
44572;SDS011;31762;45.420;10.072;2023-08-24T00:24:47;9.90;;;8.98;;
44572;SDS011;31762;45.420;10.072;2023-08-24T00:29:49;10.77;;;8.32;;
44572;SDS011;31762;45.420;10.072;2023-08-24T00:34:51;9.32;;;8.43;;
44572;SDS011;31762;45.420;10.072;2023-08-24T00:39:54;10.30;;;9.50;;
44572;SDS011;31762;45.420;10.072;2023-08-24T00:44:56;10.43;;;9.25;;
44572;SDS011;31762;45.420;10.072;2023-08-24T00:49:59;9.23;;;8.35;;
44572;SDS011;31762;45.420;10.072;2023-08-24T00:55:02;9.93;;;8.80;;
44572;SDS011;31762;45.420;10.072;2023-08-24T01:00:05;10.38;;;9.40;;
44572;SDS011;31762;45.420;10.072;2023-08-24T01:05:07;9.25;;;8.45;;
44572;SDS011;31762;45.420;10.072;2023-08-24T01:10:10;9.93;;;9.02;;
44572;SDS011;31762;45.420;10.072;2023-08-24T01:15:20;10.13;;;9.15;;
44572;SDS011;31762;45.420;10.072;2023-08-24T01:20:25;9.80;;;8.93;;
44572;SDS011;31762;45.420;10.072;2023-08-24T01:31:05;9.35;;;8.55;;
44572;SDS011;31762;45.420;10.072;2023-08-24T01:36:08;10.68;;;9.63;;
44572;SDS011;31762;45.420;10.072;2023-08-24T01:46:16;9.77;;;8.98;;
44572;SDS011;31762;45.420;10.072;2023-08-24T01:51:19;10.70;;;9.70;;
44572;SDS011;31762;45.420;10.072;2023-08-24T01:56:22;11.70;;;10.55;;
44572;SDS011;31762;45.420;10.072;2023-08-24T02:01:24;10.80;;;9.80;;
44572;SDS011;31762;45.420;10.072;2023-08-24T02:06:26;10.93;;;9.93;;
44572;SDS011;31762;45.420;10.072;2023-08-24T02:11:28;10.20;;;9.32;;
44572;SDS011;31762;45.420;10.072;2023-08-24T02:16:31;11.30;;;10.40;;
44572;SDS011;31762;45.420;10.072;2023-08-24T02:21:35;10.27;;;9.38;;
44572;SDS011;31762;45.420;10.072;2023-08-24T02:26:37;10.50;;;9.65;;
44572;SDS011;31762;45.420;10.072;2023-08-24T02:31:39;11.35;;;10.27;;
44572;SDS011;31762;45.420;10.072;2023-08-24T02:36:41;11.18;;;10.18;;
44572;SDS011;31762;45.420;10.072;2023-08-24T02:41:44;10.93;;;9.93;;
44572;SDS011;31762;45.420;10.072;2023-08-24T02:46:47;9.90;;;8.88;;
44572;SDS011;31762;45.420;10.072;2023-08-24T02:56:53;10.88;;;9.80;;
44572;SDS011;31762;45.420;10.072;2023-08-24T03:01:55;10.05;;;9.05;;
44572;SDS011;31762;45.420;10.072;2023-08-24T03:06:57;11.02;;;10.02;;
44572;SDS011;31762;45.420;10.072;2023-08-24T03:11:59;9.82;;;8.90;;
44572;SDS011;31762;45.420;10.072;2023-08-24T03:17:02;11.45;;;10.27;;
44572;SDS011;31762;45.420;10.072;2023-08-24T03:22:04;10.13;;;9.23;;
44572;SDS011;31762;45.420;10.072;2023-08-24T03:27:06;12.75;;;10.35;;
44572;SDS011;31762;45.420;10.072;2023-08-24T03:32:08;9.90;;;9.05;;
44572;SDS011;31762;45.420;10.072;2023-08-24T03:37:11;12.02;;;10.82;;
44572;SDS011;31762;45.420;10.072;2023-08-24T03:42:13;10.80;;;9.80;;
44572;SDS011;31762;45.420;10.072;2023-08-24T03:47:15;9.63;;;8.80;;
44572;SDS011;31762;45.420;10.072;2023-08-24T03:52:17;9.82;;;9.07;;
44572;SDS011;31762;45.420;10.072;2023-08-24T03:57:20;11.65;;;10.55;;
44572;SDS011;31762;45.420;10.072;2023-08-24T04:02:22;11.10;;;10.20;;
44572;SDS011;31762;45.420;10.072;2023-08-24T04:07:24;9.88;;;9.00;;
44572;SDS011;31762;45.420;10.072;2023-08-24T04:12:26;10.65;;;9.70;;
44572;SDS011;31762;45.420;10.072;2023-08-24T04:17:29;11.38;;;10.20;;
44572;SDS011;31762;45.420;10.072;2023-08-24T04:22:31;13.05;;;11.77;;
44572;SDS011;31762;45.420;10.072;2023-08-24T04:27:33;12.07;;;10.98;;
44572;SDS011;31762;45.420;10.072;2023-08-24T04:32:35;13.02;;;11.80;;
44572;SDS011;31762;45.420;10.072;2023-08-24T04:37:38;13.23;;;12.02;;
44572;SDS011;31762;45.420;10.072;2023-08-24T04:42:40;13.10;;;11.90;;
44572;SDS011;31762;45.420;10.072;2023-08-24T04:47:42;12.65;;;11.55;;
44572;SDS011;31762;45.420;10.072;2023-08-24T04:52:44;12.02;;;10.93;;
44572;SDS011;31762;45.420;10.072;2023-08-24T04:57:46;10.02;;;9.10;;
44572;SDS011;31762;45.420;10.072;2023-08-24T05:07:53;11.40;;;10.30;;
44572;SDS011;31762;45.420;10.072;2023-08-24T05:12:55;11.05;;;9.95;;
44572;SDS011;31762;45.420;10.072;2023-08-24T05:17:57;10.70;;;9.82;;
44572;SDS011;31762;45.420;10.072;2023-08-24T05:22:59;10.93;;;9.82;;
44572;SDS011;31762;45.420;10.072;2023-08-24T05:28:02;13.07;;;10.80;;
44572;SDS011;31762;45.420;10.072;2023-08-24T05:33:04;14.02;;;11.30;;
44572;SDS011;31762;45.420;10.072;2023-08-24T05:38:06;12.15;;;11.05;;
44572;SDS011;31762;45.420;10.072;2023-08-24T05:43:09;12.05;;;10.95;;
44572;SDS011;31762;45.420;10.072;2023-08-24T05:48:11;12.80;;;11.60;;
44572;SDS011;31762;45.420;10.072;2023-08-24T05:53:14;11.55;;;10.23;;
44572;SDS011;31762;45.420;10.072;2023-08-24T05:58:16;11.63;;;10.52;;
44572;SDS011;31762;45.420;10.072;2023-08-24T06:03:18;9.43;;;8.57;;
44572;SDS011;31762;45.420;10.072;2023-08-24T06:08:21;11.48;;;9.60;;
44572;SDS011;31762;45.420;10.072;2023-08-24T06:13:23;8.95;;;8.18;;
44572;SDS011;31762;45.420;10.072;2023-08-24T06:23:28;8.57;;;7.78;;
44572;SDS011;31762;45.420;10.072;2023-08-24T06:28:30;11.18;;;8.73;;
44572;SDS011;31762;45.420;10.072;2023-08-24T06:38:34;9.63;;;8.60;;
44572;SDS011;31762;45.420;10.072;2023-08-24T06:43:37;10.07;;;9.07;;
44572;SDS011;31762;45.420;10.072;2023-08-24T06:48:39;9.50;;;8.70;;
44572;SDS011;31762;45.420;10.072;2023-08-24T06:53:41;10.43;;;9.52;;
44572;SDS011;31762;45.420;10.072;2023-08-24T06:58:44;9.25;;;8.38;;
44572;SDS011;31762;45.420;10.072;2023-08-24T07:03:46;11.65;;;9.70;;
44572;SDS011;31762;45.420;10.072;2023-08-24T07:08:48;11.10;;;8.68;;
44572;SDS011;31762;45.420;10.072;2023-08-24T07:13:50;8.52;;;7.82;;
44572;SDS011;31762;45.420;10.072;2023-08-24T07:18:53;10.20;;;9.15;;
44572;SDS011;31762;45.420;10.072;2023-08-24T07:23:55;10.35;;;9.25;;
44572;SDS011;31762;45.420;10.072;2023-08-24T07:28:57;8.45;;;7.63;;
44572;SDS011;31762;45.420;10.072;2023-08-24T07:34:00;9.98;;;8.68;;
44572;SDS011;31762;45.420;10.072;2023-08-24T07:39:02;10.20;;;9.20;;
44572;SDS011;31762;45.420;10.072;2023-08-24T07:44:04;9.95;;;8.95;;
44572;SDS011;31762;45.420;10.072;2023-08-24T07:49:07;10.35;;;9.43;;
44572;SDS011;31762;45.420;10.072;2023-08-24T07:54:09;11.43;;;9.30;;
44572;SDS011;31762;45.420;10.072;2023-08-24T07:59:11;10.60;;;9.73;;
44572;SDS011;31762;45.420;10.072;2023-08-24T08:04:13;9.93;;;9.02;;
44572;SDS011;31762;45.420;10.072;2023-08-24T08:09:15;9.82;;;9.07;;
44572;SDS011;31762;45.420;10.072;2023-08-24T08:14:18;10.25;;;9.32;;
44572;SDS011;31762;45.420;10.072;2023-08-24T08:19:20;9.82;;;8.93;;
44572;SDS011;31762;45.420;10.072;2023-08-24T08:24:22;10.88;;;9.82;;
44572;SDS011;31762;45.420;10.072;2023-08-24T08:29:26;8.55;;;7.85;;
44572;SDS011;31762;45.420;10.072;2023-08-24T08:34:28;10.05;;;9.05;;
44572;SDS011;31762;45.420;10.072;2023-08-24T08:39:32;9.98;;;9.00;;
44572;SDS011;31762;45.420;10.072;2023-08-24T08:44:34;9.65;;;8.75;;
44572;SDS011;31762;45.420;10.072;2023-08-24T08:49:40;9.68;;;8.88;;
44572;SDS011;31762;45.420;10.072;2023-08-24T08:54:44;9.65;;;8.80;;
44572;SDS011;31762;45.420;10.072;2023-08-24T08:59:46;9.30;;;8.40;;
44572;SDS011;31762;45.420;10.072;2023-08-24T09:04:50;9.52;;;8.57;;
44572;SDS011;31762;45.420;10.072;2023-08-24T09:09:52;9.85;;;9.05;;
44572;SDS011;31762;45.420;10.072;2023-08-24T09:14:55;8.82;;;7.68;;
44572;SDS011;31762;45.420;10.072;2023-08-24T09:19:58;9.15;;;8.35;;
44572;SDS011;31762;45.420;10.072;2023-08-24T09:25:00;9.68;;;7.55;;
44572;SDS011;31762;45.420;10.072;2023-08-24T09:30:04;8.55;;;7.75;;
44572;SDS011;31762;45.420;10.072;2023-08-24T09:40:08;8.88;;;8.02;;
44572;SDS011;31762;45.420;10.072;2023-08-24T09:45:11;11.07;;;8.05;;
44572;SDS011;31762;45.420;10.072;2023-08-24T09:50:14;8.55;;;7.85;;
44572;SDS011;31762;45.420;10.072;2023-08-24T09:55:19;9.80;;;8.55;;
44572;SDS011;31762;45.420;10.072;2023-08-24T10:00:22;9.13;;;7.68;;
44572;SDS011;31762;45.420;10.072;2023-08-24T10:10:39;8.27;;;7.32;;
44572;SDS011;31762;45.420;10.072;2023-08-24T10:15:43;8.48;;;7.68;;
44572;SDS011;31762;45.420;10.072;2023-08-24T10:20:45;10.13;;;8.98;;
44572;SDS011;31762;45.420;10.072;2023-08-24T10:25:49;9.20;;;8.35;;
44572;SDS011;31762;45.420;10.072;2023-08-24T10:30:53;9.45;;;8.57;;
44572;SDS011;31762;45.420;10.072;2023-08-24T10:35:56;9.02;;;8.23;;
44572;SDS011;31762;45.420;10.072;2023-08-24T10:41:04;8.77;;;7.85;;
44572;SDS011;31762;45.420;10.072;2023-08-24T10:46:14;8.55;;;7.65;;
44572;SDS011;31762;45.420;10.072;2023-08-24T10:51:17;8.63;;;7.82;;
44572;SDS011;31762;45.420;10.072;2023-08-24T10:56:19;8.77;;;7.43;;
44572;SDS011;31762;45.420;10.072;2023-08-24T11:06:24;7.35;;;6.65;;
44572;SDS011;31762;45.420;10.072;2023-08-24T11:11:26;7.78;;;7.07;;
44572;SDS011;31762;45.420;10.072;2023-08-24T11:16:38;7.97;;;7.25;;
44572;SDS011;31762;45.420;10.072;2023-08-24T11:21:42;8.57;;;7.78;;
44572;SDS011;31762;45.420;10.072;2023-08-24T11:26:45;8.00;;;6.68;;
44572;SDS011;31762;45.420;10.072;2023-08-24T11:31:48;7.60;;;6.97;;
44572;SDS011;31762;45.420;10.072;2023-08-24T11:36:50;8.07;;;7.38;;
44572;SDS011;31762;45.420;10.072;2023-08-24T11:42:02;8.10;;;7.10;;
44572;SDS011;31762;45.420;10.072;2023-08-24T11:47:05;8.10;;;6.40;;
44572;SDS011;31762;45.420;10.072;2023-08-24T11:52:08;8.63;;;7.35;;
44572;SDS011;31762;45.420;10.072;2023-08-24T11:57:10;7.57;;;6.88;;
44572;SDS011;31762;45.420;10.072;2023-08-24T12:02:12;7.50;;;6.88;;
44572;SDS011;31762;45.420;10.072;2023-08-24T12:07:16;7.47;;;6.78;;
44572;SDS011;31762;45.420;10.072;2023-08-24T12:12:18;6.90;;;6.30;;
44572;SDS011;31762;45.420;10.072;2023-08-24T12:17:21;7.68;;;6.97;;
44572;SDS011;31762;45.420;10.072;2023-08-24T12:22:23;7.35;;;6.65;;
44572;SDS011;31762;45.420;10.072;2023-08-24T12:27:25;7.07;;;6.47;;
44572;SDS011;31762;45.420;10.072;2023-08-24T12:32:41;7.72;;;7.03;;
44572;SDS011;31762;45.420;10.072;2023-08-24T12:37:44;6.85;;;6.25;;
44572;SDS011;31762;45.420;10.072;2023-08-24T12:42:46;7.88;;;7.15;;
44572;SDS011;31762;45.420;10.072;2023-08-24T12:47:48;8.95;;;6.90;;
44572;SDS011;31762;45.420;10.072;2023-08-24T12:52:51;7.05;;;6.45;;
44572;SDS011;31762;45.420;10.072;2023-08-24T12:57:53;7.15;;;6.45;;
44572;SDS011;31762;45.420;10.072;2023-08-24T13:02:56;7.32;;;6.70;;
44572;SDS011;31762;45.420;10.072;2023-08-24T13:07:58;7.47;;;6.78;;
44572;SDS011;31762;45.420;10.072;2023-08-24T13:13:01;6.45;;;5.85;;
44572;SDS011;31762;45.420;10.072;2023-08-24T13:18:04;6.97;;;6.38;;
44572;SDS011;31762;45.420;10.072;2023-08-24T13:23:06;7.03;;;6.43;;
44572;SDS011;31762;45.420;10.072;2023-08-24T13:28:08;6.70;;;6.10;;
44572;SDS011;31762;45.420;10.072;2023-08-24T13:33:10;6.10;;;5.60;;
44572;SDS011;31762;45.420;10.072;2023-08-24T13:38:13;6.75;;;6.15;;
44572;SDS011;31762;45.420;10.072;2023-08-24T13:43:15;6.80;;;6.20;;
44572;SDS011;31762;45.420;10.072;2023-08-24T13:48:17;6.93;;;6.10;;
44572;SDS011;31762;45.420;10.072;2023-08-24T13:53:19;6.28;;;5.68;;
44572;SDS011;31762;45.420;10.072;2023-08-24T13:58:22;6.53;;;5.93;;
44572;SDS011;31762;45.420;10.072;2023-08-24T14:03:24;6.25;;;5.75;;
44572;SDS011;31762;45.420;10.072;2023-08-24T14:08:26;6.50;;;5.95;;
44572;SDS011;31762;45.420;10.072;2023-08-24T14:13:28;5.85;;;5.35;;
44572;SDS011;31762;45.420;10.072;2023-08-24T14:18:31;5.75;;;5.25;;
44572;SDS011;31762;45.420;10.072;2023-08-24T14:23:33;6.75;;;6.15;;
44572;SDS011;31762;45.420;10.072;2023-08-24T14:33:56;9.07;;;6.07;;
44572;SDS011;31762;45.420;10.072;2023-08-24T14:38:58;6.40;;;5.80;;
44572;SDS011;31762;45.420;10.072;2023-08-24T14:44:00;6.25;;;5.50;;
44572;SDS011;31762;45.420;10.072;2023-08-24T14:49:02;5.82;;;5.32;;
44572;SDS011;31762;45.420;10.072;2023-08-24T14:54:05;7.72;;;6.13;;
44572;SDS011;31762;45.420;10.072;2023-08-24T14:59:07;5.88;;;5.22;;
44572;SDS011;31762;45.420;10.072;2023-08-24T15:04:09;5.35;;;4.95;;
44572;SDS011;31762;45.420;10.072;2023-08-24T15:09:11;5.85;;;5.35;;
44572;SDS011;31762;45.420;10.072;2023-08-24T15:14:14;5.88;;;5.38;;
44572;SDS011;31762;45.420;10.072;2023-08-24T15:19:16;5.30;;;4.88;;
44572;SDS011;31762;45.420;10.072;2023-08-24T15:24:18;5.25;;;4.78;;
44572;SDS011;31762;45.420;10.072;2023-08-24T15:29:20;5.75;;;5.20;;
44572;SDS011;31762;45.420;10.072;2023-08-24T15:34:22;5.03;;;4.63;;
44572;SDS011;31762;45.420;10.072;2023-08-24T15:39:25;6.35;;;5.70;;
44572;SDS011;31762;45.420;10.072;2023-08-24T15:44:27;5.55;;;5.05;;
44572;SDS011;31762;45.420;10.072;2023-08-24T15:49:29;5.10;;;4.65;;
44572;SDS011;31762;45.420;10.072;2023-08-24T15:54:31;5.32;;;4.85;;
44572;SDS011;31762;45.420;10.072;2023-08-24T15:59:34;5.13;;;4.72;;
44572;SDS011;31762;45.420;10.072;2023-08-24T16:04:36;5.82;;;5.32;;
44572;SDS011;31762;45.420;10.072;2023-08-24T16:09:38;4.75;;;4.35;;
44572;SDS011;31762;45.420;10.072;2023-08-24T16:14:40;4.55;;;4.15;;
44572;SDS011;31762;45.420;10.072;2023-08-24T16:19:43;4.65;;;4.25;;
44572;SDS011;31762;45.420;10.072;2023-08-24T16:24:46;5.00;;;4.50;;
44572;SDS011;31762;45.420;10.072;2023-08-24T16:29:48;4.80;;;4.30;;
44572;SDS011;31762;45.420;10.072;2023-08-24T16:34:50;5.50;;;5.05;;
44572;SDS011;31762;45.420;10.072;2023-08-24T16:39:52;5.93;;;4.60;;
44572;SDS011;31762;45.420;10.072;2023-08-24T16:44:54;5.65;;;5.00;;
44572;SDS011;31762;45.420;10.072;2023-08-24T16:49:57;5.28;;;4.60;;
44572;SDS011;31762;45.420;10.072;2023-08-24T16:54:59;4.75;;;4.35;;
44572;SDS011;31762;45.420;10.072;2023-08-24T17:00:01;5.50;;;5.00;;
44572;SDS011;31762;45.420;10.072;2023-08-24T17:05:04;4.43;;;3.90;;
44572;SDS011;31762;45.420;10.072;2023-08-24T17:10:06;5.32;;;4.82;;
44572;SDS011;31762;45.420;10.072;2023-08-24T17:15:09;4.45;;;4.15;;
44572;SDS011;31762;45.420;10.072;2023-08-24T17:20:12;4.45;;;4.05;;
44572;SDS011;31762;45.420;10.072;2023-08-24T17:25:14;6.88;;;4.55;;
44572;SDS011;31762;45.420;10.072;2023-08-24T17:30:16;4.93;;;4.53;;
44572;SDS011;31762;45.420;10.072;2023-08-24T17:35:18;3.95;;;3.60;;
44572;SDS011;31762;45.420;10.072;2023-08-24T17:40:21;4.07;;;3.78;;
44572;SDS011;31762;45.420;10.072;2023-08-24T17:45:23;4.63;;;4.25;;
44572;SDS011;31762;45.420;10.072;2023-08-24T17:50:25;4.32;;;3.92;;
44572;SDS011;31762;45.420;10.072;2023-08-24T17:55:27;4.40;;;4.10;;
44572;SDS011;31762;45.420;10.072;2023-08-24T18:00:30;4.88;;;3.97;;
44572;SDS011;31762;45.420;10.072;2023-08-24T18:05:32;4.78;;;4.38;;
44572;SDS011;31762;45.420;10.072;2023-08-24T18:10:34;4.55;;;4.10;;
44572;SDS011;31762;45.420;10.072;2023-08-24T18:15:37;4.05;;;3.75;;
44572;SDS011;31762;45.420;10.072;2023-08-24T18:20:39;4.75;;;4.22;;
44572;SDS011;31762;45.420;10.072;2023-08-24T18:25:41;5.28;;;4.88;;
44572;SDS011;31762;45.420;10.072;2023-08-24T18:30:44;4.35;;;4.00;;
44572;SDS011;31762;45.420;10.072;2023-08-24T18:35:46;4.22;;;3.28;;
44572;SDS011;31762;45.420;10.072;2023-08-24T18:40:52;4.95;;;4.55;;
44572;SDS011;31762;45.420;10.072;2023-08-24T18:45:57;4.43;;;3.40;;
44572;SDS011;31762;45.420;10.072;2023-08-24T18:51:00;5.32;;;4.30;;
44572;SDS011;31762;45.420;10.072;2023-08-24T18:56:02;4.05;;;3.72;;
44572;SDS011;31762;45.420;10.072;2023-08-24T19:01:05;4.65;;;4.25;;
44572;SDS011;31762;45.420;10.072;2023-08-24T19:06:07;4.50;;;4.10;;
44572;SDS011;31762;45.420;10.072;2023-08-24T19:11:26;4.65;;;4.15;;
44572;SDS011;31762;45.420;10.072;2023-08-24T19:16:28;5.32;;;4.53;;
44572;SDS011;31762;45.420;10.072;2023-08-24T19:21:31;4.03;;;3.72;;
44572;SDS011;31762;45.420;10.072;2023-08-24T19:26:33;4.80;;;4.07;;
44572;SDS011;31762;45.420;10.072;2023-08-24T19:31:35;4.25;;;3.67;;
44572;SDS011;31762;45.420;10.072;2023-08-24T19:36:38;4.50;;;3.83;;
44572;SDS011;31762;45.420;10.072;2023-08-24T19:41:40;4.60;;;4.20;;
44572;SDS011;31762;45.420;10.072;2023-08-24T19:46:54;4.13;;;3.72;;
44572;SDS011;31762;45.420;10.072;2023-08-24T19:51:56;5.82;;;4.45;;
44572;SDS011;31762;45.420;10.072;2023-08-24T19:56:59;5.25;;;4.85;;
44572;SDS011;31762;45.420;10.072;2023-08-24T20:02:02;6.15;;;4.45;;
44572;SDS011;31762;45.420;10.072;2023-08-24T20:07:04;6.30;;;4.40;;
44572;SDS011;31762;45.420;10.072;2023-08-24T20:12:07;5.10;;;4.40;;
44572;SDS011;31762;45.420;10.072;2023-08-24T20:17:09;5.38;;;4.88;;
44572;SDS011;31762;45.420;10.072;2023-08-24T20:22:12;5.00;;;3.70;;
44572;SDS011;31762;45.420;10.072;2023-08-24T20:27:14;5.40;;;4.88;;
44572;SDS011;31762;45.420;10.072;2023-08-24T20:32:16;4.90;;;4.50;;
44572;SDS011;31762;45.420;10.072;2023-08-24T20:37:19;4.97;;;4.50;;
44572;SDS011;31762;45.420;10.072;2023-08-24T20:42:21;7.72;;;5.22;;
44572;SDS011;31762;45.420;10.072;2023-08-24T20:47:23;6.10;;;5.30;;
44572;SDS011;31762;45.420;10.072;2023-08-24T20:52:25;6.18;;;5.63;;
44572;SDS011;31762;45.420;10.072;2023-08-24T20:57:28;5.38;;;4.88;;
44572;SDS011;31762;45.420;10.072;2023-08-24T21:02:30;5.53;;;5.00;;
44572;SDS011;31762;45.420;10.072;2023-08-24T21:07:33;5.88;;;5.38;;
44572;SDS011;31762;45.420;10.072;2023-08-24T21:17:37;6.78;;;6.18;;
44572;SDS011;31762;45.420;10.072;2023-08-24T21:27:42;6.85;;;6.25;;
44572;SDS011;31762;45.420;10.072;2023-08-24T21:32:44;8.18;;;6.50;;
44572;SDS011;31762;45.420;10.072;2023-08-24T21:37:47;6.85;;;6.20;;
44572;SDS011;31762;45.420;10.072;2023-08-24T21:42:49;11.30;;;6.07;;
44572;SDS011;31762;45.420;10.072;2023-08-24T21:47:51;10.15;;;6.35;;
44572;SDS011;31762;45.420;10.072;2023-08-24T21:57:56;7.32;;;6.35;;
44572;SDS011;31762;45.420;10.072;2023-08-24T22:02:58;7.22;;;6.53;;
44572;SDS011;31762;45.420;10.072;2023-08-24T22:08:01;12.57;;;7.75;;
44572;SDS011;31762;45.420;10.072;2023-08-24T22:13:03;10.75;;;7.35;;
44572;SDS011;31762;45.420;10.072;2023-08-24T22:18:06;7.38;;;6.70;;
44572;SDS011;31762;45.420;10.072;2023-08-24T22:23:08;10.70;;;7.82;;
44572;SDS011;31762;45.420;10.072;2023-08-24T22:28:10;8.93;;;6.60;;
44572;SDS011;31762;45.420;10.072;2023-08-24T22:33:12;8.10;;;6.57;;
44572;SDS011;31762;45.420;10.072;2023-08-24T22:38:15;8.95;;;6.63;;
44572;SDS011;31762;45.420;10.072;2023-08-24T22:43:17;7.88;;;5.93;;
44572;SDS011;31762;45.420;10.072;2023-08-24T22:48:19;6.82;;;6.22;;
44572;SDS011;31762;45.420;10.072;2023-08-24T22:53:21;7.72;;;6.70;;
44572;SDS011;31762;45.420;10.072;2023-08-24T22:58:24;9.80;;;6.00;;
44572;SDS011;31762;45.420;10.072;2023-08-24T23:03:26;7.43;;;6.40;;
44572;SDS011;31762;45.420;10.072;2023-08-24T23:08:28;9.05;;;6.25;;
44572;SDS011;31762;45.420;10.072;2023-08-24T23:13:30;8.05;;;6.68;;
44572;SDS011;31762;45.420;10.072;2023-08-24T23:18:33;7.05;;;6.43;;
44572;SDS011;31762;45.420;10.072;2023-08-24T23:23:35;8.20;;;6.97;;
44572;SDS011;31762;45.420;10.072;2023-08-24T23:28:38;7.40;;;6.70;;
44572;SDS011;31762;45.420;10.072;2023-08-24T23:33:40;7.47;;;6.82;;
44572;SDS011;31762;45.420;10.072;2023-08-24T23:38:42;7.80;;;7.13;;
44572;SDS011;31762;45.420;10.072;2023-08-24T23:43:45;8.02;;;6.70;;
44572;SDS011;31762;45.420;10.072;2023-08-24T23:48:47;6.32;;;5.78;;
44572;SDS011;31762;45.420;10.072;2023-08-24T23:53:49;8.10;;;6.47;;
44572;SDS011;31762;45.420;10.072;2023-08-24T23:58:51;10.95;;;6.20;;
